sensor_id;sensor_type;location;lat;lon;timestamp;temperature;humidity
17571;DHT22;8903;52.220;20.978;2022-09-09T00:02:01;13.00;99.90
17571;DHT22;8903;52.220;20.978;2022-09-09T00:04:30;12.90;99.90
17571;DHT22;8903;52.220;20.978;2022-09-09T00:06:59;12.90;99.90
17571;DHT22;8903;52.220;20.978;2022-09-09T00:09:29;12.80;99.90
17571;DHT22;8903;52.220;20.978;2022-09-09T00:12:00;12.80;99.90
17571;DHT22;8903;52.220;20.978;2022-09-09T00:14:32;12.80;99.90
17571;DHT22;8903;52.220;20.978;2022-09-09T00:17:01;12.70;99.90
17571;DHT22;8903;52.220;20.978;2022-09-09T00:19:30;12.60;99.90
17571;DHT22;8903;52.220;20.978;2022-09-09T00:22:03;12.60;99.90
17571;DHT22;8903;52.220;20.978;2022-09-09T00:24:36;12.60;99.90
17571;DHT22;8903;52.220;20.978;2022-09-09T00:27:08;12.50;99.90
17571;DHT22;8903;52.220;20.978;2022-09-09T00:29:43;12.50;99.90
17571;DHT22;8903;52.220;20.978;2022-09-09T00:32:11;12.50;99.90
17571;DHT22;8903;52.220;20.978;2022-09-09T00:34:39;12.40;99.90
17571;DHT22;8903;52.220;20.978;2022-09-09T00:37:08;12.40;99.90
17571;DHT22;8903;52.220;20.978;2022-09-09T00:39:36;12.30;99.90
17571;DHT22;8903;52.220;20.978;2022-09-09T00:42:08;12.30;99.90
17571;DHT22;8903;52.220;20.978;2022-09-09T00:44:38;12.30;99.90
17571;DHT22;8903;52.220;20.978;2022-09-09T00:47:09;12.30;99.90
17571;DHT22;8903;52.220;20.978;2022-09-09T00:49:40;12.30;99.90
17571;DHT22;8903;52.220;20.978;2022-09-09T00:52:12;12.30;99.90
17571;DHT22;8903;52.220;20.978;2022-09-09T00:54:44;12.30;99.90
17571;DHT22;8903;52.220;20.978;2022-09-09T00:57:19;12.30;99.90
17571;DHT22;8903;52.220;20.978;2022-09-09T00:59:50;12.30;99.90
17571;DHT22;8903;52.220;20.978;2022-09-09T01:02:21;12.30;99.90
17571;DHT22;8903;52.220;20.978;2022-09-09T01:04:52;12.30;99.90
17571;DHT22;8903;52.220;20.978;2022-09-09T01:07:20;12.30;99.90
17571;DHT22;8903;52.220;20.978;2022-09-09T01:09:51;12.30;99.90
17571;DHT22;8903;52.220;20.978;2022-09-09T01:12:25;12.30;99.90
17571;DHT22;8903;52.220;20.978;2022-09-09T01:14:56;12.20;99.90
17571;DHT22;8903;52.220;20.978;2022-09-09T01:17:26;12.20;99.90
17571;DHT22;8903;52.220;20.978;2022-09-09T01:20:04;12.20;99.90
17571;DHT22;8903;52.220;20.978;2022-09-09T01:22:44;12.20;99.90
17571;DHT22;8903;52.220;20.978;2022-09-09T01:25:15;12.20;99.90
17571;DHT22;8903;52.220;20.978;2022-09-09T01:27:56;12.20;99.90
17571;DHT22;8903;52.220;20.978;2022-09-09T01:30:23;12.20;99.90
17571;DHT22;8903;52.220;20.978;2022-09-09T01:32:53;12.20;99.90
17571;DHT22;8903;52.220;20.978;2022-09-09T01:35:22;12.20;99.90
17571;DHT22;8903;52.220;20.978;2022-09-09T01:37:53;12.20;99.90
17571;DHT22;8903;52.220;20.978;2022-09-09T01:40:20;12.30;99.90
17571;DHT22;8903;52.220;20.978;2022-09-09T01:42:48;12.20;99.90
17571;DHT22;8903;52.220;20.978;2022-09-09T01:45:16;12.30;99.90
17571;DHT22;8903;52.220;20.978;2022-09-09T01:47:42;12.20;99.90
17571;DHT22;8903;52.220;20.978;2022-09-09T01:50:17;12.20;99.90
17571;DHT22;8903;52.220;20.978;2022-09-09T01:52:44;12.20;99.90
17571;DHT22;8903;52.220;20.978;2022-09-09T01:55:14;12.20;99.90
17571;DHT22;8903;52.220;20.978;2022-09-09T01:57:43;12.30;99.90
17571;DHT22;8903;52.220;20.978;2022-09-09T02:00:11;12.30;99.90
17571;DHT22;8903;52.220;20.978;2022-09-09T02:02:46;12.30;99.90
17571;DHT22;8903;52.220;20.978;2022-09-09T02:05:24;12.30;99.90
17571;DHT22;8903;52.220;20.978;2022-09-09T02:07:52;12.30;99.90
17571;DHT22;8903;52.220;20.978;2022-09-09T02:10:31;12.30;99.90
17571;DHT22;8903;52.220;20.978;2022-09-09T02:13:11;12.30;99.90
17571;DHT22;8903;52.220;20.978;2022-09-09T02:15:40;12.30;99.90
17571;DHT22;8903;52.220;20.978;2022-09-09T02:18:10;12.30;99.90
17571;DHT22;8903;52.220;20.978;2022-09-09T02:20:39;12.30;99.90
17571;DHT22;8903;52.220;20.978;2022-09-09T02:23:07;12.30;99.90
17571;DHT22;8903;52.220;20.978;2022-09-09T02:25:36;12.30;99.90
17571;DHT22;8903;52.220;20.978;2022-09-09T02:28:15;12.30;99.90
17571;DHT22;8903;52.220;20.978;2022-09-09T02:30:43;12.30;99.90
17571;DHT22;8903;52.220;20.978;2022-09-09T02:33:14;12.30;99.90
17571;DHT22;8903;52.220;20.978;2022-09-09T02:35:44;12.20;99.90
17571;DHT22;8903;52.220;20.978;2022-09-09T02:38:13;12.20;99.90
17571;DHT22;8903;52.220;20.978;2022-09-09T02:40:50;12.20;99.90
17571;DHT22;8903;52.220;20.978;2022-09-09T02:43:17;12.20;99.90
17571;DHT22;8903;52.220;20.978;2022-09-09T02:45:47;12.20;99.90
17571;DHT22;8903;52.220;20.978;2022-09-09T02:48:20;12.20;99.90
17571;DHT22;8903;52.220;20.978;2022-09-09T02:50:50;12.10;99.90
17571;DHT22;8903;52.220;20.978;2022-09-09T02:53:23;12.20;99.90
17571;DHT22;8903;52.220;20.978;2022-09-09T02:55:51;12.10;99.90
17571;DHT22;8903;52.220;20.978;2022-09-09T02:58:22;12.20;99.90
17571;DHT22;8903;52.220;20.978;2022-09-09T03:00:57;12.20;99.90
17571;DHT22;8903;52.220;20.978;2022-09-09T03:03:28;12.20;99.90
17571;DHT22;8903;52.220;20.978;2022-09-09T03:05:56;12.20;99.90
17571;DHT22;8903;52.220;20.978;2022-09-09T03:08:25;12.20;99.90
17571;DHT22;8903;52.220;20.978;2022-09-09T03:10:54;12.20;99.90
17571;DHT22;8903;52.220;20.978;2022-09-09T03:13:21;12.10;99.90
17571;DHT22;8903;52.220;20.978;2022-09-09T03:15:49;12.10;99.90
17571;DHT22;8903;52.220;20.978;2022-09-09T03:18:19;12.10;99.90
17571;DHT22;8903;52.220;20.978;2022-09-09T03:20:51;12.10;99.90
17571;DHT22;8903;52.220;20.978;2022-09-09T03:23:19;12.00;99.90
17571;DHT22;8903;52.220;20.978;2022-09-09T03:25:47;12.10;99.90
17571;DHT22;8903;52.220;20.978;2022-09-09T03:28:17;12.00;99.90
17571;DHT22;8903;52.220;20.978;2022-09-09T03:30:44;12.10;99.90
17571;DHT22;8903;52.220;20.978;2022-09-09T03:33:11;12.10;99.90
17571;DHT22;8903;52.220;20.978;2022-09-09T03:35:44;12.10;99.90
17571;DHT22;8903;52.220;20.978;2022-09-09T03:38:13;12.10;99.90
17571;DHT22;8903;52.220;20.978;2022-09-09T03:40:43;12.10;99.90
17571;DHT22;8903;52.220;20.978;2022-09-09T03:43:14;12.10;99.90
17571;DHT22;8903;52.220;20.978;2022-09-09T03:45:44;12.10;99.90
17571;DHT22;8903;52.220;20.978;2022-09-09T03:48:12;12.10;99.90
17571;DHT22;8903;52.220;20.978;2022-09-09T03:50:43;12.10;99.90
17571;DHT22;8903;52.220;20.978;2022-09-09T03:53:10;12.10;99.90
17571;DHT22;8903;52.220;20.978;2022-09-09T03:55:38;12.20;99.90
17571;DHT22;8903;52.220;20.978;2022-09-09T03:58:07;12.10;99.90
17571;DHT22;8903;52.220;20.978;2022-09-09T04:00:34;12.10;99.90
17571;DHT22;8903;52.220;20.978;2022-09-09T04:03:02;12.20;99.90
17571;DHT22;8903;52.220;20.978;2022-09-09T04:05:28;12.20;99.90
17571;DHT22;8903;52.220;20.978;2022-09-09T04:07:55;12.20;99.90
17571;DHT22;8903;52.220;20.978;2022-09-09T04:10:23;12.20;99.90
17571;DHT22;8903;52.220;20.978;2022-09-09T04:12:55;12.10;99.90
17571;DHT22;8903;52.220;20.978;2022-09-09T04:15:21;12.20;99.90
17571;DHT22;8903;52.220;20.978;2022-09-09T04:17:48;12.20;99.90
17571;DHT22;8903;52.220;20.978;2022-09-09T04:20:16;12.20;99.90
17571;DHT22;8903;52.220;20.978;2022-09-09T04:22:44;12.20;99.90
17571;DHT22;8903;52.220;20.978;2022-09-09T04:25:11;12.20;99.90
17571;DHT22;8903;52.220;20.978;2022-09-09T04:27:37;12.20;99.90
17571;DHT22;8903;52.220;20.978;2022-09-09T04:30:08;12.20;99.90
17571;DHT22;8903;52.220;20.978;2022-09-09T04:32:36;12.20;99.90
17571;DHT22;8903;52.220;20.978;2022-09-09T04:35:03;12.20;99.90
17571;DHT22;8903;52.220;20.978;2022-09-09T04:37:31;12.20;99.90
17571;DHT22;8903;52.220;20.978;2022-09-09T04:39:58;12.20;99.90
17571;DHT22;8903;52.220;20.978;2022-09-09T04:42:29;12.20;99.90
17571;DHT22;8903;52.220;20.978;2022-09-09T04:44:55;12.20;99.90
17571;DHT22;8903;52.220;20.978;2022-09-09T04:47:24;12.20;99.90
17571;DHT22;8903;52.220;20.978;2022-09-09T04:49:51;12.30;99.90
17571;DHT22;8903;52.220;20.978;2022-09-09T04:52:19;12.30;99.90
17571;DHT22;8903;52.220;20.978;2022-09-09T04:54:46;12.30;99.90
17571;DHT22;8903;52.220;20.978;2022-09-09T04:57:13;12.30;99.90
17571;DHT22;8903;52.220;20.978;2022-09-09T04:59:40;12.30;99.90
17571;DHT22;8903;52.220;20.978;2022-09-09T05:02:08;12.30;99.90
17571;DHT22;8903;52.220;20.978;2022-09-09T05:04:38;12.30;99.90
17571;DHT22;8903;52.220;20.978;2022-09-09T05:07:06;12.30;99.90
17571;DHT22;8903;52.220;20.978;2022-09-09T05:09:33;12.30;99.90
17571;DHT22;8903;52.220;20.978;2022-09-09T05:12:01;12.30;99.90
17571;DHT22;8903;52.220;20.978;2022-09-09T05:14:31;12.30;99.90
17571;DHT22;8903;52.220;20.978;2022-09-09T05:17:00;12.30;99.90
17571;DHT22;8903;52.220;20.978;2022-09-09T05:19:27;12.30;99.90
17571;DHT22;8903;52.220;20.978;2022-09-09T05:21:55;12.30;99.90
17571;DHT22;8903;52.220;20.978;2022-09-09T05:24:29;12.40;99.90
17571;DHT22;8903;52.220;20.978;2022-09-09T05:26:58;12.40;99.90
17571;DHT22;8903;52.220;20.978;2022-09-09T05:29:27;12.40;99.90
17571;DHT22;8903;52.220;20.978;2022-09-09T05:31:55;12.40;99.90
17571;DHT22;8903;52.220;20.978;2022-09-09T05:34:23;12.40;99.90
17571;DHT22;8903;52.220;20.978;2022-09-09T05:36:50;12.40;99.90
17571;DHT22;8903;52.220;20.978;2022-09-09T05:39:21;12.40;99.90
17571;DHT22;8903;52.220;20.978;2022-09-09T05:41:48;12.50;99.90
17571;DHT22;8903;52.220;20.978;2022-09-09T05:44:16;12.50;99.90
17571;DHT22;8903;52.220;20.978;2022-09-09T05:46:43;12.50;99.90
17571;DHT22;8903;52.220;20.978;2022-09-09T05:49:11;12.50;99.90
17571;DHT22;8903;52.220;20.978;2022-09-09T05:51:40;12.60;99.90
17571;DHT22;8903;52.220;20.978;2022-09-09T05:54:10;12.60;99.90
17571;DHT22;8903;52.220;20.978;2022-09-09T05:56:43;12.60;99.90
17571;DHT22;8903;52.220;20.978;2022-09-09T05:59:10;12.60;99.90
17571;DHT22;8903;52.220;20.978;2022-09-09T06:01:38;12.60;99.90
17571;DHT22;8903;52.220;20.978;2022-09-09T06:04:08;12.60;99.90
17571;DHT22;8903;52.220;20.978;2022-09-09T06:06:36;12.70;99.90
17571;DHT22;8903;52.220;20.978;2022-09-09T06:09:10;12.70;99.90
17571;DHT22;8903;52.220;20.978;2022-09-09T06:11:39;12.70;99.90
17571;DHT22;8903;52.220;20.978;2022-09-09T06:14:08;12.70;99.90
17571;DHT22;8903;52.220;20.978;2022-09-09T06:16:36;12.60;99.90
17571;DHT22;8903;52.220;20.978;2022-09-09T06:19:06;12.70;99.90
17571;DHT22;8903;52.220;20.978;2022-09-09T06:21:34;12.70;99.90
17571;DHT22;8903;52.220;20.978;2022-09-09T06:24:03;12.80;99.90
17571;DHT22;8903;52.220;20.978;2022-09-09T06:26:30;12.80;99.90
17571;DHT22;8903;52.220;20.978;2022-09-09T06:28:59;12.80;99.90
17571;DHT22;8903;52.220;20.978;2022-09-09T06:31:29;12.80;99.90
17571;DHT22;8903;52.220;20.978;2022-09-09T06:33:59;12.80;99.90
17571;DHT22;8903;52.220;20.978;2022-09-09T06:36:29;12.80;99.90
17571;DHT22;8903;52.220;20.978;2022-09-09T06:38:57;12.90;99.90
17571;DHT22;8903;52.220;20.978;2022-09-09T06:41:25;12.90;99.90
17571;DHT22;8903;52.220;20.978;2022-09-09T06:43:52;12.90;99.90
17571;DHT22;8903;52.220;20.978;2022-09-09T06:46:29;12.90;99.90
17571;DHT22;8903;52.220;20.978;2022-09-09T06:48:57;12.90;99.90
17571;DHT22;8903;52.220;20.978;2022-09-09T06:51:25;12.90;99.90
17571;DHT22;8903;52.220;20.978;2022-09-09T06:53:53;12.90;99.90
17571;DHT22;8903;52.220;20.978;2022-09-09T06:56:21;12.90;99.90
17571;DHT22;8903;52.220;20.978;2022-09-09T06:58:50;12.90;99.90
17571;DHT22;8903;52.220;20.978;2022-09-09T07:01:23;12.90;99.90
17571;DHT22;8903;52.220;20.978;2022-09-09T07:03:52;13.00;99.90
17571;DHT22;8903;52.220;20.978;2022-09-09T07:06:20;13.00;99.90
17571;DHT22;8903;52.220;20.978;2022-09-09T07:08:50;13.10;99.90
17571;DHT22;8903;52.220;20.978;2022-09-09T07:11:18;13.10;99.90
17571;DHT22;8903;52.220;20.978;2022-09-09T07:13:45;13.10;99.90
17571;DHT22;8903;52.220;20.978;2022-09-09T07:16:13;13.20;99.90
17571;DHT22;8903;52.220;20.978;2022-09-09T07:18:41;13.30;99.90
17571;DHT22;8903;52.220;20.978;2022-09-09T07:21:10;13.30;99.90
17571;DHT22;8903;52.220;20.978;2022-09-09T07:23:38;13.30;99.90
17571;DHT22;8903;52.220;20.978;2022-09-09T07:26:07;13.30;99.90
17571;DHT22;8903;52.220;20.978;2022-09-09T07:28:34;13.30;99.90
17571;DHT22;8903;52.220;20.978;2022-09-09T07:31:01;13.30;99.90
17571;DHT22;8903;52.220;20.978;2022-09-09T07:33:29;13.40;99.90
17571;DHT22;8903;52.220;20.978;2022-09-09T07:36:01;13.30;99.90
17571;DHT22;8903;52.220;20.978;2022-09-09T07:38:30;13.30;99.90
17571;DHT22;8903;52.220;20.978;2022-09-09T07:41:02;13.30;99.90
17571;DHT22;8903;52.220;20.978;2022-09-09T07:43:29;13.30;99.90
17571;DHT22;8903;52.220;20.978;2022-09-09T07:45:57;13.40;99.90
17571;DHT22;8903;52.220;20.978;2022-09-09T07:48:23;13.40;99.90
17571;DHT22;8903;52.220;20.978;2022-09-09T07:50:51;13.40;99.90
17571;DHT22;8903;52.220;20.978;2022-09-09T07:53:19;13.50;99.90
17571;DHT22;8903;52.220;20.978;2022-09-09T07:55:51;13.50;99.90
17571;DHT22;8903;52.220;20.978;2022-09-09T07:58:19;13.60;99.90
17571;DHT22;8903;52.220;20.978;2022-09-09T08:00:46;13.60;99.90
17571;DHT22;8903;52.220;20.978;2022-09-09T08:03:12;13.70;99.90
17571;DHT22;8903;52.220;20.978;2022-09-09T08:05:39;13.70;99.90
17571;DHT22;8903;52.220;20.978;2022-09-09T08:08:06;13.80;99.90
17571;DHT22;8903;52.220;20.978;2022-09-09T08:10:34;13.80;99.90
17571;DHT22;8903;52.220;20.978;2022-09-09T08:13:02;13.80;99.90
17571;DHT22;8903;52.220;20.978;2022-09-09T08:15:31;13.80;99.90
17571;DHT22;8903;52.220;20.978;2022-09-09T08:17:58;13.80;99.90
17571;DHT22;8903;52.220;20.978;2022-09-09T08:20:25;13.80;99.90
17571;DHT22;8903;52.220;20.978;2022-09-09T08:22:54;13.80;99.90
17571;DHT22;8903;52.220;20.978;2022-09-09T08:25:21;13.80;99.90
17571;DHT22;8903;52.220;20.978;2022-09-09T08:27:48;13.80;99.90
17571;DHT22;8903;52.220;20.978;2022-09-09T08:30:17;13.80;99.90
17571;DHT22;8903;52.220;20.978;2022-09-09T08:32:45;13.80;99.90
17571;DHT22;8903;52.220;20.978;2022-09-09T08:35:12;13.80;99.90
17571;DHT22;8903;52.220;20.978;2022-09-09T08:37:39;13.80;99.90
17571;DHT22;8903;52.220;20.978;2022-09-09T08:40:07;13.90;99.90
17571;DHT22;8903;52.220;20.978;2022-09-09T08:42:38;13.90;99.90
17571;DHT22;8903;52.220;20.978;2022-09-09T08:48:06;14.10;99.90
17571;DHT22;8903;52.220;20.978;2022-09-09T08:50:36;14.00;99.90
17571;DHT22;8903;52.220;20.978;2022-09-09T08:53:25;14.00;99.90
17571;DHT22;8903;52.220;20.978;2022-09-09T08:55:56;14.00;99.90
17571;DHT22;8903;52.220;20.978;2022-09-09T08:58:31;14.00;99.90
17571;DHT22;8903;52.220;20.978;2022-09-09T09:01:05;14.10;99.90
17571;DHT22;8903;52.220;20.978;2022-09-09T09:03:48;14.20;99.90
17571;DHT22;8903;52.220;20.978;2022-09-09T09:06:22;14.20;99.90
17571;DHT22;8903;52.220;20.978;2022-09-09T09:08:54;14.20;99.90
17571;DHT22;8903;52.220;20.978;2022-09-09T09:11:24;14.20;99.90
17571;DHT22;8903;52.220;20.978;2022-09-09T09:13:52;14.30;99.90
17571;DHT22;8903;52.220;20.978;2022-09-09T09:16:22;14.30;99.90
17571;DHT22;8903;52.220;20.978;2022-09-09T09:18:54;14.30;99.90
17571;DHT22;8903;52.220;20.978;2022-09-09T09:21:25;14.40;99.90
17571;DHT22;8903;52.220;20.978;2022-09-09T09:23:56;14.50;99.90
17571;DHT22;8903;52.220;20.978;2022-09-09T09:26:25;14.50;99.90
17571;DHT22;8903;52.220;20.978;2022-09-09T09:28:53;14.50;99.90
17571;DHT22;8903;52.220;20.978;2022-09-09T09:31:22;14.50;99.90
17571;DHT22;8903;52.220;20.978;2022-09-09T09:34:00;14.50;99.90
17571;DHT22;8903;52.220;20.978;2022-09-09T09:36:34;14.40;99.90
17571;DHT22;8903;52.220;20.978;2022-09-09T09:39:03;14.40;99.90
17571;DHT22;8903;52.220;20.978;2022-09-09T09:41:33;14.40;99.90
17571;DHT22;8903;52.220;20.978;2022-09-09T09:44:01;14.40;99.90
17571;DHT22;8903;52.220;20.978;2022-09-09T09:46:28;14.40;99.90
17571;DHT22;8903;52.220;20.978;2022-09-09T09:49:15;14.50;99.90
17571;DHT22;8903;52.220;20.978;2022-09-09T09:51:43;14.50;99.90
17571;DHT22;8903;52.220;20.978;2022-09-09T09:54:14;14.50;99.90
17571;DHT22;8903;52.220;20.978;2022-09-09T09:56:46;14.50;99.90
17571;DHT22;8903;52.220;20.978;2022-09-09T09:59:20;14.50;99.90
17571;DHT22;8903;52.220;20.978;2022-09-09T10:01:47;14.60;99.90
17571;DHT22;8903;52.220;20.978;2022-09-09T10:04:16;14.60;99.90
17571;DHT22;8903;52.220;20.978;2022-09-09T10:06:44;14.70;99.90
17571;DHT22;8903;52.220;20.978;2022-09-09T10:09:20;14.80;99.90
17571;DHT22;8903;52.220;20.978;2022-09-09T10:11:48;14.90;99.90
17571;DHT22;8903;52.220;20.978;2022-09-09T10:14:19;14.90;99.90
17571;DHT22;8903;52.220;20.978;2022-09-09T10:17:01;14.70;99.90
17571;DHT22;8903;52.220;20.978;2022-09-09T10:19:33;14.70;99.90
17571;DHT22;8903;52.220;20.978;2022-09-09T10:22:02;14.70;99.90
17571;DHT22;8903;52.220;20.978;2022-09-09T10:27:18;14.70;99.90
17571;DHT22;8903;52.220;20.978;2022-09-09T10:29:53;14.70;99.90
17571;DHT22;8903;52.220;20.978;2022-09-09T10:32:30;14.70;99.90
17571;DHT22;8903;52.220;20.978;2022-09-09T10:35:02;14.60;99.90
17571;DHT22;8903;52.220;20.978;2022-09-09T10:37:35;14.70;99.90
17571;DHT22;8903;52.220;20.978;2022-09-09T10:40:11;14.70;99.90
17571;DHT22;8903;52.220;20.978;2022-09-09T10:42:42;14.80;99.90
17571;DHT22;8903;52.220;20.978;2022-09-09T10:45:15;14.70;99.90
17571;DHT22;8903;52.220;20.978;2022-09-09T10:47:57;14.70;99.90
17571;DHT22;8903;52.220;20.978;2022-09-09T10:50:35;14.50;99.90
17571;DHT22;8903;52.220;20.978;2022-09-09T10:53:07;14.50;99.90
17571;DHT22;8903;52.220;20.978;2022-09-09T10:55:36;14.50;99.90
17571;DHT22;8903;52.220;20.978;2022-09-09T10:58:05;14.60;99.90
17571;DHT22;8903;52.220;20.978;2022-09-09T11:00:36;14.60;99.90
17571;DHT22;8903;52.220;20.978;2022-09-09T11:03:05;14.60;99.90
17571;DHT22;8903;52.220;20.978;2022-09-09T11:05:38;14.70;99.90
17571;DHT22;8903;52.220;20.978;2022-09-09T11:08:09;14.80;99.90
17571;DHT22;8903;52.220;20.978;2022-09-09T11:10:38;14.80;99.90
17571;DHT22;8903;52.220;20.978;2022-09-09T11:13:09;14.80;99.90
17571;DHT22;8903;52.220;20.978;2022-09-09T11:15:39;14.80;99.90
17571;DHT22;8903;52.220;20.978;2022-09-09T11:18:08;14.80;99.90
17571;DHT22;8903;52.220;20.978;2022-09-09T11:20:41;14.80;99.90
17571;DHT22;8903;52.220;20.978;2022-09-09T11:23:10;14.80;99.90
17571;DHT22;8903;52.220;20.978;2022-09-09T11:25:39;14.70;99.90
17571;DHT22;8903;52.220;20.978;2022-09-09T11:28:14;14.80;99.90
17571;DHT22;8903;52.220;20.978;2022-09-09T11:30:45;14.80;99.90
17571;DHT22;8903;52.220;20.978;2022-09-09T11:33:22;14.80;99.90
17571;DHT22;8903;52.220;20.978;2022-09-09T11:35:56;14.90;99.90
17571;DHT22;8903;52.220;20.978;2022-09-09T11:38:26;14.90;99.90
17571;DHT22;8903;52.220;20.978;2022-09-09T11:40:57;14.90;99.90
17571;DHT22;8903;52.220;20.978;2022-09-09T11:43:27;15.00;99.90
17571;DHT22;8903;52.220;20.978;2022-09-09T11:45:55;15.00;99.90
17571;DHT22;8903;52.220;20.978;2022-09-09T11:48:26;15.10;99.90
17571;DHT22;8903;52.220;20.978;2022-09-09T11:51:00;15.10;99.90
17571;DHT22;8903;52.220;20.978;2022-09-09T11:53:30;15.10;99.90
17571;DHT22;8903;52.220;20.978;2022-09-09T11:56:00;15.10;99.90
17571;DHT22;8903;52.220;20.978;2022-09-09T11:58:29;15.20;99.90
17571;DHT22;8903;52.220;20.978;2022-09-09T12:00:58;15.20;99.90
17571;DHT22;8903;52.220;20.978;2022-09-09T12:03:33;15.10;99.90
17571;DHT22;8903;52.220;20.978;2022-09-09T12:06:09;15.20;99.90
17571;DHT22;8903;52.220;20.978;2022-09-09T12:08:39;15.30;99.90
17571;DHT22;8903;52.220;20.978;2022-09-09T12:11:08;15.40;99.90
17571;DHT22;8903;52.220;20.978;2022-09-09T12:13:36;15.40;99.90
17571;DHT22;8903;52.220;20.978;2022-09-09T12:16:03;15.40;99.90
17571;DHT22;8903;52.220;20.978;2022-09-09T12:18:32;15.50;99.90
17571;DHT22;8903;52.220;20.978;2022-09-09T12:21:02;15.50;99.90
17571;DHT22;8903;52.220;20.978;2022-09-09T12:23:33;15.50;99.90
17571;DHT22;8903;52.220;20.978;2022-09-09T12:26:07;15.50;99.90
17571;DHT22;8903;52.220;20.978;2022-09-09T12:28:41;15.50;99.90
17571;DHT22;8903;52.220;20.978;2022-09-09T12:31:12;15.50;99.90
17571;DHT22;8903;52.220;20.978;2022-09-09T12:33:43;15.60;99.90
17571;DHT22;8903;52.220;20.978;2022-09-09T12:36:11;15.50;99.90
17571;DHT22;8903;52.220;20.978;2022-09-09T12:38:41;15.50;99.90
17571;DHT22;8903;52.220;20.978;2022-09-09T12:41:16;15.40;99.90
17571;DHT22;8903;52.220;20.978;2022-09-09T12:43:44;15.50;99.90
17571;DHT22;8903;52.220;20.978;2022-09-09T12:46:13;15.50;99.90
17571;DHT22;8903;52.220;20.978;2022-09-09T12:48:44;15.50;99.90
17571;DHT22;8903;52.220;20.978;2022-09-09T12:51:16;15.60;99.90
17571;DHT22;8903;52.220;20.978;2022-09-09T12:53:45;15.60;99.90
17571;DHT22;8903;52.220;20.978;2022-09-09T12:56:18;15.60;99.90
17571;DHT22;8903;52.220;20.978;2022-09-09T12:58:45;15.70;99.90
17571;DHT22;8903;52.220;20.978;2022-09-09T13:01:18;15.80;99.90
17571;DHT22;8903;52.220;20.978;2022-09-09T13:03:46;15.80;99.90
17571;DHT22;8903;52.220;20.978;2022-09-09T13:06:17;15.80;99.90
17571;DHT22;8903;52.220;20.978;2022-09-09T13:08:46;15.80;99.90
17571;DHT22;8903;52.220;20.978;2022-09-09T13:11:14;15.70;99.90
17571;DHT22;8903;52.220;20.978;2022-09-09T13:13:43;15.70;99.90
17571;DHT22;8903;52.220;20.978;2022-09-09T13:16:20;15.70;99.90
17571;DHT22;8903;52.220;20.978;2022-09-09T13:18:47;15.70;99.90
17571;DHT22;8903;52.220;20.978;2022-09-09T13:21:14;15.70;99.90
17571;DHT22;8903;52.220;20.978;2022-09-09T13:23:41;15.70;99.90
17571;DHT22;8903;52.220;20.978;2022-09-09T13:26:21;15.60;99.90
17571;DHT22;8903;52.220;20.978;2022-09-09T13:28:48;15.60;99.90
17571;DHT22;8903;52.220;20.978;2022-09-09T13:31:19;15.60;99.90
17571;DHT22;8903;52.220;20.978;2022-09-09T13:33:47;15.50;99.90
17571;DHT22;8903;52.220;20.978;2022-09-09T13:36:14;15.50;99.90
17571;DHT22;8903;52.220;20.978;2022-09-09T13:38:53;15.50;99.90
17571;DHT22;8903;52.220;20.978;2022-09-09T13:41:21;15.40;99.90
17571;DHT22;8903;52.220;20.978;2022-09-09T13:43:49;15.30;99.90
17571;DHT22;8903;52.220;20.978;2022-09-09T13:46:24;15.20;99.90
17571;DHT22;8903;52.220;20.978;2022-09-09T13:48:54;15.20;99.90
17571;DHT22;8903;52.220;20.978;2022-09-09T13:51:34;15.20;99.90
17571;DHT22;8903;52.220;20.978;2022-09-09T13:54:02;15.20;99.90
17571;DHT22;8903;52.220;20.978;2022-09-09T13:56:31;15.10;99.90
17571;DHT22;8903;52.220;20.978;2022-09-09T13:58:58;15.10;99.90
17571;DHT22;8903;52.220;20.978;2022-09-09T14:01:24;15.10;99.90
17571;DHT22;8903;52.220;20.978;2022-09-09T14:03:52;15.00;99.90
17571;DHT22;8903;52.220;20.978;2022-09-09T14:06:19;14.90;99.90
17571;DHT22;8903;52.220;20.978;2022-09-09T14:08:47;14.90;99.90
17571;DHT22;8903;52.220;20.978;2022-09-09T14:11:14;14.90;99.90
17571;DHT22;8903;52.220;20.978;2022-09-09T14:13:42;14.90;99.90
17571;DHT22;8903;52.220;20.978;2022-09-09T14:16:09;14.80;99.90
17571;DHT22;8903;52.220;20.978;2022-09-09T14:18:36;14.90;99.90
17571;DHT22;8903;52.220;20.978;2022-09-09T14:21:04;14.90;99.90
17571;DHT22;8903;52.220;20.978;2022-09-09T14:23:31;14.90;99.90
17571;DHT22;8903;52.220;20.978;2022-09-09T14:25:58;14.90;99.90
17571;DHT22;8903;52.220;20.978;2022-09-09T14:28:24;15.00;99.90
17571;DHT22;8903;52.220;20.978;2022-09-09T14:30:53;15.00;99.90
17571;DHT22;8903;52.220;20.978;2022-09-09T14:33:20;15.00;99.90
17571;DHT22;8903;52.220;20.978;2022-09-09T14:35:47;15.00;99.90
17571;DHT22;8903;52.220;20.978;2022-09-09T14:38:14;15.00;99.90
17571;DHT22;8903;52.220;20.978;2022-09-09T14:40:41;15.00;99.90
17571;DHT22;8903;52.220;20.978;2022-09-09T14:43:14;15.10;99.90
17571;DHT22;8903;52.220;20.978;2022-09-09T14:45:41;15.00;99.90
17571;DHT22;8903;52.220;20.978;2022-09-09T14:48:10;15.10;99.90
17571;DHT22;8903;52.220;20.978;2022-09-09T14:50:36;15.10;99.90
17571;DHT22;8903;52.220;20.978;2022-09-09T14:53:05;15.20;99.90
17571;DHT22;8903;52.220;20.978;2022-09-09T14:55:32;15.20;99.90
17571;DHT22;8903;52.220;20.978;2022-09-09T14:57:59;15.20;99.90
17571;DHT22;8903;52.220;20.978;2022-09-09T15:00:25;15.30;99.90
17571;DHT22;8903;52.220;20.978;2022-09-09T15:02:52;15.30;99.90
17571;DHT22;8903;52.220;20.978;2022-09-09T15:05:21;15.30;99.90
17571;DHT22;8903;52.220;20.978;2022-09-09T15:07:49;15.20;99.90
17571;DHT22;8903;52.220;20.978;2022-09-09T15:10:16;15.20;99.90
17571;DHT22;8903;52.220;20.978;2022-09-09T15:12:43;15.20;99.90
17571;DHT22;8903;52.220;20.978;2022-09-09T15:15:10;15.20;99.90
17571;DHT22;8903;52.220;20.978;2022-09-09T15:17:38;15.20;99.90
17571;DHT22;8903;52.220;20.978;2022-09-09T15:20:05;15.20;99.90
17571;DHT22;8903;52.220;20.978;2022-09-09T15:22:33;15.20;99.90
17571;DHT22;8903;52.220;20.978;2022-09-09T15:25:02;15.20;99.90
17571;DHT22;8903;52.220;20.978;2022-09-09T15:27:29;15.30;99.90
17571;DHT22;8903;52.220;20.978;2022-09-09T15:29:56;15.30;99.90
17571;DHT22;8903;52.220;20.978;2022-09-09T15:32:23;15.30;99.90
17571;DHT22;8903;52.220;20.978;2022-09-09T15:34:50;15.30;99.90
17571;DHT22;8903;52.220;20.978;2022-09-09T15:37:18;15.30;99.90
17571;DHT22;8903;52.220;20.978;2022-09-09T15:39:46;15.30;99.90
17571;DHT22;8903;52.220;20.978;2022-09-09T15:42:13;15.30;99.90
17571;DHT22;8903;52.220;20.978;2022-09-09T15:44:40;15.30;99.90
17571;DHT22;8903;52.220;20.978;2022-09-09T15:47:08;15.40;99.90
17571;DHT22;8903;52.220;20.978;2022-09-09T15:49:37;15.50;99.90
17571;DHT22;8903;52.220;20.978;2022-09-09T15:52:04;15.50;99.90